sensor_id;sensor_type;location;lat;lon;timestamp;temperature;humidity
26342;DHT22;14054;50.108;8.640;2023-03-01T00:01:08;0.60;99.90
26342;DHT22;14054;50.108;8.640;2023-03-01T00:03:34;0.70;99.90
26342;DHT22;14054;50.108;8.640;2023-03-01T00:06:00;0.70;99.90
26342;DHT22;14054;50.108;8.640;2023-03-01T00:08:26;0.60;99.90
26342;DHT22;14054;50.108;8.640;2023-03-01T00:13:26;0.70;99.90
26342;DHT22;14054;50.108;8.640;2023-03-01T00:15:52;0.60;99.90
26342;DHT22;14054;50.108;8.640;2023-03-01T00:18:17;0.60;99.90
26342;DHT22;14054;50.108;8.640;2023-03-01T00:20:48;0.60;99.90
26342;DHT22;14054;50.108;8.640;2023-03-01T00:23:14;0.60;99.90
26342;DHT22;14054;50.108;8.640;2023-03-01T00:25:43;0.60;99.90
26342;DHT22;14054;50.108;8.640;2023-03-01T00:28:08;0.60;99.90
26342;DHT22;14054;50.108;8.640;2023-03-01T00:30:33;0.60;99.90
26342;DHT22;14054;50.108;8.640;2023-03-01T00:32:59;0.60;99.90
26342;DHT22;14054;50.108;8.640;2023-03-01T00:35:24;0.50;99.90
26342;DHT22;14054;50.108;8.640;2023-03-01T00:37:50;0.50;99.90
26342;DHT22;14054;50.108;8.640;2023-03-01T00:40:23;0.50;99.90
26342;DHT22;14054;50.108;8.640;2023-03-01T00:42:49;0.40;99.90
26342;DHT22;14054;50.108;8.640;2023-03-01T00:45:14;0.40;99.90
26342;DHT22;14054;50.108;8.640;2023-03-01T00:47:40;0.40;99.90
26342;DHT22;14054;50.108;8.640;2023-03-01T00:50:05;0.40;99.90
26342;DHT22;14054;50.108;8.640;2023-03-01T00:52:31;0.40;99.90
26342;DHT22;14054;50.108;8.640;2023-03-01T00:54:56;0.40;99.90
26342;DHT22;14054;50.108;8.640;2023-03-01T00:57:23;0.40;99.90
26342;DHT22;14054;50.108;8.640;2023-03-01T00:59:48;0.40;99.90
26342;DHT22;14054;50.108;8.640;2023-03-01T01:02:14;0.50;99.90
26342;DHT22;14054;50.108;8.640;2023-03-01T01:04:39;0.50;99.90
26342;DHT22;14054;50.108;8.640;2023-03-01T01:07:04;0.50;99.90
26342;DHT22;14054;50.108;8.640;2023-03-01T01:09:30;0.50;99.90
26342;DHT22;14054;50.108;8.640;2023-03-01T01:11:56;0.50;99.90
26342;DHT22;14054;50.108;8.640;2023-03-01T01:14:21;0.50;99.90
26342;DHT22;14054;50.108;8.640;2023-03-01T01:16:47;0.50;99.90
26342;DHT22;14054;50.108;8.640;2023-03-01T01:19:12;0.50;99.90
26342;DHT22;14054;50.108;8.640;2023-03-01T01:21:38;0.50;99.90
26342;DHT22;14054;50.108;8.640;2023-03-01T01:24:04;0.50;99.90
26342;DHT22;14054;50.108;8.640;2023-03-01T01:26:31;0.50;99.90
26342;DHT22;14054;50.108;8.640;2023-03-01T01:28:57;0.50;99.90
26342;DHT22;14054;50.108;8.640;2023-03-01T01:31:23;0.50;99.90
26342;DHT22;14054;50.108;8.640;2023-03-01T01:33:49;0.50;99.90
26342;DHT22;14054;50.108;8.640;2023-03-01T01:36:15;0.50;99.90
26342;DHT22;14054;50.108;8.640;2023-03-01T01:38:41;0.50;99.90
26342;DHT22;14054;50.108;8.640;2023-03-01T01:41:07;0.60;99.90
26342;DHT22;14054;50.108;8.640;2023-03-01T01:43:34;0.50;99.90
26342;DHT22;14054;50.108;8.640;2023-03-01T01:46:01;0.60;99.90
26342;DHT22;14054;50.108;8.640;2023-03-01T01:48:39;0.50;99.90
26342;DHT22;14054;50.108;8.640;2023-03-01T01:51:06;0.50;99.90
26342;DHT22;14054;50.108;8.640;2023-03-01T01:53:32;0.50;99.90
26342;DHT22;14054;50.108;8.640;2023-03-01T01:55:58;0.50;99.90
26342;DHT22;14054;50.108;8.640;2023-03-01T01:58:25;0.50;99.90
26342;DHT22;14054;50.108;8.640;2023-03-01T02:00:53;0.50;99.90
26342;DHT22;14054;50.108;8.640;2023-03-01T02:03:20;0.50;99.90
26342;DHT22;14054;50.108;8.640;2023-03-01T02:05:57;0.50;99.90
26342;DHT22;14054;50.108;8.640;2023-03-01T02:08:25;0.50;99.90
26342;DHT22;14054;50.108;8.640;2023-03-01T02:10:52;0.50;99.90
26342;DHT22;14054;50.108;8.640;2023-03-01T02:13:18;0.50;99.90
26342;DHT22;14054;50.108;8.640;2023-03-01T02:15:43;0.50;99.90
26342;DHT22;14054;50.108;8.640;2023-03-01T02:18:10;0.50;99.90
26342;DHT22;14054;50.108;8.640;2023-03-01T02:20:40;0.50;99.90
26342;DHT22;14054;50.108;8.640;2023-03-01T02:23:10;0.50;99.90
26342;DHT22;14054;50.108;8.640;2023-03-01T02:25:39;0.40;99.90
26342;DHT22;14054;50.108;8.640;2023-03-01T02:30:41;0.50;99.90
26342;DHT22;14054;50.108;8.640;2023-03-01T02:33:27;0.50;99.90
26342;DHT22;14054;50.108;8.640;2023-03-01T02:35:54;0.40;99.90
26342;DHT22;14054;50.108;8.640;2023-03-01T02:38:19;0.50;99.90
26342;DHT22;14054;50.108;8.640;2023-03-01T02:40:45;0.50;99.90
26342;DHT22;14054;50.108;8.640;2023-03-01T02:43:12;0.50;99.90
26342;DHT22;14054;50.108;8.640;2023-03-01T02:45:37;0.50;99.90
26342;DHT22;14054;50.108;8.640;2023-03-01T02:48:02;0.50;99.90
26342;DHT22;14054;50.108;8.640;2023-03-01T02:53:05;0.50;99.90
26342;DHT22;14054;50.108;8.640;2023-03-01T02:55:33;0.50;99.90
26342;DHT22;14054;50.108;8.640;2023-03-01T02:57:58;0.50;99.90
26342;DHT22;14054;50.108;8.640;2023-03-01T03:00:28;0.50;99.90
26342;DHT22;14054;50.108;8.640;2023-03-01T03:02:55;0.50;99.90
26342;DHT22;14054;50.108;8.640;2023-03-01T03:05:23;0.50;99.90
26342;DHT22;14054;50.108;8.640;2023-03-01T03:07:49;0.50;99.90
26342;DHT22;14054;50.108;8.640;2023-03-01T03:10:15;0.40;99.90
26342;DHT22;14054;50.108;8.640;2023-03-01T03:12:41;0.40;99.90
26342;DHT22;14054;50.108;8.640;2023-03-01T03:15:07;0.40;99.90
26342;DHT22;14054;50.108;8.640;2023-03-01T03:17:35;0.40;99.90
26342;DHT22;14054;50.108;8.640;2023-03-01T03:20:00;0.40;99.90
26342;DHT22;14054;50.108;8.640;2023-03-01T03:22:26;0.40;99.90
26342;DHT22;14054;50.108;8.640;2023-03-01T03:24:53;0.40;99.90
26342;DHT22;14054;50.108;8.640;2023-03-01T03:27:19;0.40;99.90
26342;DHT22;14054;50.108;8.640;2023-03-01T03:29:44;0.40;99.90
26342;DHT22;14054;50.108;8.640;2023-03-01T03:32:10;0.30;99.90
26342;DHT22;14054;50.108;8.640;2023-03-01T03:34:35;0.40;99.90
26342;DHT22;14054;50.108;8.640;2023-03-01T03:37:00;0.30;99.90
26342;DHT22;14054;50.108;8.640;2023-03-01T03:39:26;0.30;99.90
26342;DHT22;14054;50.108;8.640;2023-03-01T03:41:52;0.30;99.90
26342;DHT22;14054;50.108;8.640;2023-03-01T03:44:18;0.20;99.90
26342;DHT22;14054;50.108;8.640;2023-03-01T03:46:43;0.30;99.90
26342;DHT22;14054;50.108;8.640;2023-03-01T03:49:09;0.20;99.90
26342;DHT22;14054;50.108;8.640;2023-03-01T03:51:34;0.20;99.90
26342;DHT22;14054;50.108;8.640;2023-03-01T03:54:00;0.20;99.90
26342;DHT22;14054;50.108;8.640;2023-03-01T03:56:25;0.20;99.90
26342;DHT22;14054;50.108;8.640;2023-03-01T03:58:51;0.20;99.90
26342;DHT22;14054;50.108;8.640;2023-03-01T04:01:17;0.20;99.90
26342;DHT22;14054;50.108;8.640;2023-03-01T04:03:42;0.20;99.90
26342;DHT22;14054;50.108;8.640;2023-03-01T04:06:11;0.20;99.90
26342;DHT22;14054;50.108;8.640;2023-03-01T04:08:37;0.20;99.90
26342;DHT22;14054;50.108;8.640;2023-03-01T04:11:03;0.20;99.90
26342;DHT22;14054;50.108;8.640;2023-03-01T04:13:49;0.20;99.90
26342;DHT22;14054;50.108;8.640;2023-03-01T04:16:14;0.20;99.90
26342;DHT22;14054;50.108;8.640;2023-03-01T04:18:40;0.10;99.90
26342;DHT22;14054;50.108;8.640;2023-03-01T04:21:05;0.20;99.90
26342;DHT22;14054;50.108;8.640;2023-03-01T04:23:31;0.10;99.90
26342;DHT22;14054;50.108;8.640;2023-03-01T04:25:57;0.10;99.90
26342;DHT22;14054;50.108;8.640;2023-03-01T04:28:24;0.10;99.90
26342;DHT22;14054;50.108;8.640;2023-03-01T04:30:50;0.10;99.90
26342;DHT22;14054;50.108;8.640;2023-03-01T04:33:15;0.00;99.90
26342;DHT22;14054;50.108;8.640;2023-03-01T04:35:41;0.00;99.90
26342;DHT22;14054;50.108;8.640;2023-03-01T04:38:06;0.00;99.90
26342;DHT22;14054;50.108;8.640;2023-03-01T04:40:32;0.00;99.90
26342;DHT22;14054;50.108;8.640;2023-03-01T04:42:57;0.00;99.90
26342;DHT22;14054;50.108;8.640;2023-03-01T04:45:23;0.00;99.90
26342;DHT22;14054;50.108;8.640;2023-03-01T04:47:48;-0.10;99.90
26342;DHT22;14054;50.108;8.640;2023-03-01T04:50:16;-0.10;99.90
26342;DHT22;14054;50.108;8.640;2023-03-01T04:52:42;-0.10;99.90
26342;DHT22;14054;50.108;8.640;2023-03-01T04:55:08;-0.10;99.90
26342;DHT22;14054;50.108;8.640;2023-03-01T04:57:34;-0.10;99.90
26342;DHT22;14054;50.108;8.640;2023-03-01T04:59:59;-0.10;99.90
26342;DHT22;14054;50.108;8.640;2023-03-01T05:02:25;-0.20;99.90
26342;DHT22;14054;50.108;8.640;2023-03-01T05:04:50;-0.20;99.90
26342;DHT22;14054;50.108;8.640;2023-03-01T05:07:16;-0.20;99.90
26342;DHT22;14054;50.108;8.640;2023-03-01T05:09:45;-0.10;99.90
26342;DHT22;14054;50.108;8.640;2023-03-01T05:12:11;-0.20;99.90
26342;DHT22;14054;50.108;8.640;2023-03-01T05:14:37;-0.20;99.90
26342;DHT22;14054;50.108;8.640;2023-03-01T05:17:03;-0.20;99.90
26342;DHT22;14054;50.108;8.640;2023-03-01T05:19:29;-0.10;99.90
26342;DHT22;14054;50.108;8.640;2023-03-01T05:21:56;-0.10;99.90
26342;DHT22;14054;50.108;8.640;2023-03-01T05:24:31;-0.10;99.90
26342;DHT22;14054;50.108;8.640;2023-03-01T05:26:57;-0.10;99.90
26342;DHT22;14054;50.108;8.640;2023-03-01T05:29:23;-0.10;99.90
26342;DHT22;14054;50.108;8.640;2023-03-01T05:31:55;-0.10;99.90
26342;DHT22;14054;50.108;8.640;2023-03-01T05:34:28;-0.10;99.90
26342;DHT22;14054;50.108;8.640;2023-03-01T05:36:54;-0.10;99.90
26342;DHT22;14054;50.108;8.640;2023-03-01T05:39:20;-0.10;99.90
26342;DHT22;14054;50.108;8.640;2023-03-01T05:41:51;-0.10;99.90
26342;DHT22;14054;50.108;8.640;2023-03-01T05:44:17;-0.10;99.90
26342;DHT22;14054;50.108;8.640;2023-03-01T05:46:43;-0.10;99.90
26342;DHT22;14054;50.108;8.640;2023-03-01T05:49:08;-0.10;99.90
26342;DHT22;14054;50.108;8.640;2023-03-01T05:51:34;-0.20;99.90
26342;DHT22;14054;50.108;8.640;2023-03-01T05:53:59;-0.20;99.90
26342;DHT22;14054;50.108;8.640;2023-03-01T05:56:24;-0.20;99.90
26342;DHT22;14054;50.108;8.640;2023-03-01T05:58:50;-0.20;99.90
26342;DHT22;14054;50.108;8.640;2023-03-01T06:01:15;-0.20;99.90
26342;DHT22;14054;50.108;8.640;2023-03-01T06:03:41;-0.20;99.90
26342;DHT22;14054;50.108;8.640;2023-03-01T06:06:06;-0.20;99.90
26342;DHT22;14054;50.108;8.640;2023-03-01T06:08:32;-0.30;99.90
26342;DHT22;14054;50.108;8.640;2023-03-01T06:10:57;-0.30;99.90
26342;DHT22;14054;50.108;8.640;2023-03-01T06:13:23;-0.30;99.90
26342;DHT22;14054;50.108;8.640;2023-03-01T06:15:48;-0.30;99.90
26342;DHT22;14054;50.108;8.640;2023-03-01T06:18:14;-0.30;99.90
26342;DHT22;14054;50.108;8.640;2023-03-01T06:20:39;-0.20;99.90
26342;DHT22;14054;50.108;8.640;2023-03-01T06:23:05;-0.30;99.90
26342;DHT22;14054;50.108;8.640;2023-03-01T06:25:30;-0.20;99.90
26342;DHT22;14054;50.108;8.640;2023-03-01T06:27:56;-0.30;99.90
26342;DHT22;14054;50.108;8.640;2023-03-01T06:30:22;-0.30;99.90
26342;DHT22;14054;50.108;8.640;2023-03-01T06:32:48;-0.30;99.90
26342;DHT22;14054;50.108;8.640;2023-03-01T06:35:14;-0.30;99.90
26342;DHT22;14054;50.108;8.640;2023-03-01T06:37:42;-0.20;99.90
26342;DHT22;14054;50.108;8.640;2023-03-01T06:40:09;-0.20;99.90
26342;DHT22;14054;50.108;8.640;2023-03-01T06:42:36;-0.20;99.90
26342;DHT22;14054;50.108;8.640;2023-03-01T06:45:03;-0.10;99.90
26342;DHT22;14054;50.108;8.640;2023-03-01T06:47:29;-0.10;99.90
26342;DHT22;14054;50.108;8.640;2023-03-01T06:49:54;0.00;99.90
26342;DHT22;14054;50.108;8.640;2023-03-01T06:52:20;0.00;99.90
26342;DHT22;14054;50.108;8.640;2023-03-01T06:54:45;0.10;99.90
26342;DHT22;14054;50.108;8.640;2023-03-01T06:57:10;0.10;99.90
26342;DHT22;14054;50.108;8.640;2023-03-01T06:59:36;0.20;99.90
26342;DHT22;14054;50.108;8.640;2023-03-01T07:02:01;0.30;99.90
26342;DHT22;14054;50.108;8.640;2023-03-01T07:04:27;0.40;99.90
26342;DHT22;14054;50.108;8.640;2023-03-01T07:06:53;0.50;99.90
26342;DHT22;14054;50.108;8.640;2023-03-01T07:09:21;0.60;99.90
26342;DHT22;14054;50.108;8.640;2023-03-01T07:11:47;0.60;99.90
26342;DHT22;14054;50.108;8.640;2023-03-01T07:14:12;0.60;99.90
26342;DHT22;14054;50.108;8.640;2023-03-01T07:16:38;0.70;99.90
26342;DHT22;14054;50.108;8.640;2023-03-01T07:19:03;0.60;99.90
26342;DHT22;14054;50.108;8.640;2023-03-01T07:21:30;0.80;99.90
26342;DHT22;14054;50.108;8.640;2023-03-01T07:23:55;0.90;99.90
26342;DHT22;14054;50.108;8.640;2023-03-01T07:26:21;1.00;99.90
26342;DHT22;14054;50.108;8.640;2023-03-01T07:28:46;1.00;99.90
26342;DHT22;14054;50.108;8.640;2023-03-01T07:31:12;0.90;99.90
26342;DHT22;14054;50.108;8.640;2023-03-01T07:33:37;0.90;99.90
26342;DHT22;14054;50.108;8.640;2023-03-01T07:36:03;0.90;99.90
26342;DHT22;14054;50.108;8.640;2023-03-01T07:38:29;0.90;99.90
26342;DHT22;14054;50.108;8.640;2023-03-01T07:41:02;0.90;99.90
26342;DHT22;14054;50.108;8.640;2023-03-01T07:43:28;0.90;99.90
26342;DHT22;14054;50.108;8.640;2023-03-01T07:45:53;0.90;99.90
26342;DHT22;14054;50.108;8.640;2023-03-01T07:48:19;1.00;99.90
26342;DHT22;14054;50.108;8.640;2023-03-01T07:50:44;1.10;99.90
26342;DHT22;14054;50.108;8.640;2023-03-01T07:53:10;1.20;99.90
26342;DHT22;14054;50.108;8.640;2023-03-01T07:55:35;1.10;99.90
26342;DHT22;14054;50.108;8.640;2023-03-01T07:58:01;1.20;99.90
26342;DHT22;14054;50.108;8.640;2023-03-01T08:00:26;1.30;99.90
26342;DHT22;14054;50.108;8.640;2023-03-01T08:02:52;1.50;99.90
26342;DHT22;14054;50.108;8.640;2023-03-01T08:05:17;1.60;99.90
26342;DHT22;14054;50.108;8.640;2023-03-01T08:07:43;2.30;99.90
26342;DHT22;14054;50.108;8.640;2023-03-01T08:10:08;2.30;99.90
26342;DHT22;14054;50.108;8.640;2023-03-01T08:12:34;3.00;99.90
26342;DHT22;14054;50.108;8.640;2023-03-01T08:14:59;2.80;99.90
26342;DHT22;14054;50.108;8.640;2023-03-01T08:17:25;2.40;99.90
26342;DHT22;14054;50.108;8.640;2023-03-01T08:19:50;2.40;99.90
26342;DHT22;14054;50.108;8.640;2023-03-01T08:22:16;2.60;99.90
26342;DHT22;14054;50.108;8.640;2023-03-01T08:24:41;2.50;99.90
26342;DHT22;14054;50.108;8.640;2023-03-01T08:27:06;2.80;99.90
26342;DHT22;14054;50.108;8.640;2023-03-01T08:29:32;2.70;99.90
26342;DHT22;14054;50.108;8.640;2023-03-01T08:31:58;2.80;99.90
26342;DHT22;14054;50.108;8.640;2023-03-01T08:34:23;2.90;99.90
26342;DHT22;14054;50.108;8.640;2023-03-01T08:36:49;3.20;99.90
26342;DHT22;14054;50.108;8.640;2023-03-01T08:39:17;3.20;99.90
26342;DHT22;14054;50.108;8.640;2023-03-01T08:41:44;3.40;99.90
26342;DHT22;14054;50.108;8.640;2023-03-01T08:44:10;3.50;99.90
26342;DHT22;14054;50.108;8.640;2023-03-01T08:46:37;3.80;99.90
26342;DHT22;14054;50.108;8.640;2023-03-01T08:49:03;4.00;99.90
26342;DHT22;14054;50.108;8.640;2023-03-01T08:51:29;3.60;99.90
26342;DHT22;14054;50.108;8.640;2023-03-01T08:53:57;3.70;99.90
26342;DHT22;14054;50.108;8.640;2023-03-01T08:56:22;3.80;99.90
26342;DHT22;14054;50.108;8.640;2023-03-01T08:58:48;3.80;99.90
26342;DHT22;14054;50.108;8.640;2023-03-01T09:01:14;3.90;99.90
26342;DHT22;14054;50.108;8.640;2023-03-01T09:03:40;4.20;99.90
26342;DHT22;14054;50.108;8.640;2023-03-01T09:06:06;4.50;99.90
26342;DHT22;14054;50.108;8.640;2023-03-01T09:08:40;4.60;99.90
26342;DHT22;14054;50.108;8.640;2023-03-01T09:11:06;4.80;99.90
26342;DHT22;14054;50.108;8.640;2023-03-01T09:13:32;5.00;99.90
26342;DHT22;14054;50.108;8.640;2023-03-01T09:15:58;5.10;99.90
26342;DHT22;14054;50.108;8.640;2023-03-01T09:18:24;4.90;99.90
26342;DHT22;14054;50.108;8.640;2023-03-01T09:20:50;4.80;99.90
26342;DHT22;14054;50.108;8.640;2023-03-01T09:23:15;5.00;99.90
26342;DHT22;14054;50.108;8.640;2023-03-01T09:25:40;5.40;99.90
26342;DHT22;14054;50.108;8.640;2023-03-01T09:30:32;5.60;99.90
26342;DHT22;14054;50.108;8.640;2023-03-01T09:32:58;5.50;99.90
26342;DHT22;14054;50.108;8.640;2023-03-01T09:35:23;5.50;99.90
26342;DHT22;14054;50.108;8.640;2023-03-01T09:37:49;5.60;99.90
26342;DHT22;14054;50.108;8.640;2023-03-01T09:40:16;5.80;99.90
26342;DHT22;14054;50.108;8.640;2023-03-01T09:42:51;5.80;99.90
26342;DHT22;14054;50.108;8.640;2023-03-01T09:47:52;5.80;99.90
26342;DHT22;14054;50.108;8.640;2023-03-01T09:50:18;5.70;99.90
26342;DHT22;14054;50.108;8.640;2023-03-01T09:52:48;5.90;99.90
26342;DHT22;14054;50.108;8.640;2023-03-01T09:55:17;5.90;99.90
26342;DHT22;14054;50.108;8.640;2023-03-01T09:57:47;6.20;99.90
26342;DHT22;14054;50.108;8.640;2023-03-01T10:02:43;6.50;99.90
26342;DHT22;14054;50.108;8.640;2023-03-01T10:05:13;6.50;99.90
26342;DHT22;14054;50.108;8.640;2023-03-01T10:10:06;6.50;99.90
26342;DHT22;14054;50.108;8.640;2023-03-01T10:12:33;6.60;99.90
26342;DHT22;14054;50.108;8.640;2023-03-01T10:15:05;6.70;99.90
26342;DHT22;14054;50.108;8.640;2023-03-01T10:17:41;7.00;99.90
26342;DHT22;14054;50.108;8.640;2023-03-01T10:22:41;6.70;99.90
26342;DHT22;14054;50.108;8.640;2023-03-01T10:25:08;6.30;99.90
26342;DHT22;14054;50.108;8.640;2023-03-01T10:32:46;6.90;99.90
26342;DHT22;14054;50.108;8.640;2023-03-01T10:37:56;7.00;99.90
26342;DHT22;14054;50.108;8.640;2023-03-01T10:40:21;7.20;99.90
26342;DHT22;14054;50.108;8.640;2023-03-01T10:42:47;7.60;99.90
26342;DHT22;14054;50.108;8.640;2023-03-01T10:47:42;7.50;99.90
26342;DHT22;14054;50.108;8.640;2023-03-01T10:50:17;7.50;99.90
26342;DHT22;14054;50.108;8.640;2023-03-01T10:52:43;7.70;99.90
26342;DHT22;14054;50.108;8.640;2023-03-01T10:55:23;7.90;99.90
26342;DHT22;14054;50.108;8.640;2023-03-01T10:57:49;8.20;99.90
26342;DHT22;14054;50.108;8.640;2023-03-01T11:00:17;8.40;99.50
26342;DHT22;14054;50.108;8.640;2023-03-01T11:02:48;8.40;99.10
26342;DHT22;14054;50.108;8.640;2023-03-01T11:07:53;8.60;99.20
26342;DHT22;14054;50.108;8.640;2023-03-01T11:10:20;8.80;97.90
26342;DHT22;14054;50.108;8.640;2023-03-01T11:12:45;8.70;97.60
26342;DHT22;14054;50.108;8.640;2023-03-01T11:18:05;9.20;97.90
26342;DHT22;14054;50.108;8.640;2023-03-01T11:20:42;9.80;95.90
26342;DHT22;14054;50.108;8.640;2023-03-01T11:23:12;9.70;95.30
26342;DHT22;14054;50.108;8.640;2023-03-01T11:25:42;12.20;91.70
26342;DHT22;14054;50.108;8.640;2023-03-01T11:28:10;15.20;88.00
26342;DHT22;14054;50.108;8.640;2023-03-01T11:30:57;15.00;72.20
26342;DHT22;14054;50.108;8.640;2023-03-01T11:33:37;14.90;65.40
26342;DHT22;14054;50.108;8.640;2023-03-01T11:38:31;15.60;58.60
26342;DHT22;14054;50.108;8.640;2023-03-01T11:41:21;16.20;57.60
26342;DHT22;14054;50.108;8.640;2023-03-01T11:48:45;18.50;48.10
26342;DHT22;14054;50.108;8.640;2023-03-01T11:51:19;18.00;48.30
26342;DHT22;14054;50.108;8.640;2023-03-01T11:56:16;20.00;42.90
26342;DHT22;14054;50.108;8.640;2023-03-01T12:01:23;19.90;42.00
26342;DHT22;14054;50.108;8.640;2023-03-01T12:03:58;19.50;41.20
26342;DHT22;14054;50.108;8.640;2023-03-01T12:06:33;19.00;42.00
26342;DHT22;14054;50.108;8.640;2023-03-01T12:11:53;19.10;40.90
26342;DHT22;14054;50.108;8.640;2023-03-01T12:17:12;20.20;41.20
26342;DHT22;14054;50.108;8.640;2023-03-01T12:24:38;20.30;36.60
26342;DHT22;14054;50.108;8.640;2023-03-01T12:32:52;20.20;36.30
26342;DHT22;14054;50.108;8.640;2023-03-01T12:43:24;18.60;39.30
26342;DHT22;14054;50.108;8.640;2023-03-01T12:50:54;19.10;38.10
26342;DHT22;14054;50.108;8.640;2023-03-01T12:55:49;19.30;37.70
26342;DHT22;14054;50.108;8.640;2023-03-01T12:58:27;18.70;36.20
26342;DHT22;14054;50.108;8.640;2023-03-01T13:06:37;19.20;35.90
26342;DHT22;14054;50.108;8.640;2023-03-01T13:12:00;19.60;35.70
26342;DHT22;14054;50.108;8.640;2023-03-01T13:16:51;19.20;35.20
26342;DHT22;14054;50.108;8.640;2023-03-01T13:19:27;19.90;34.90
26342;DHT22;14054;50.108;8.640;2023-03-01T13:21:54;19.70;34.60
26342;DHT22;14054;50.108;8.640;2023-03-01T13:24:24;19.20;36.50
26342;DHT22;14054;50.108;8.640;2023-03-01T13:29:43;20.10;35.80
26342;DHT22;14054;50.108;8.640;2023-03-01T13:32:18;20.40;35.50
26342;DHT22;14054;50.108;8.640;2023-03-01T13:34:45;20.30;34.20
26342;DHT22;14054;50.108;8.640;2023-03-01T13:37:18;19.50;36.10
26342;DHT22;14054;50.108;8.640;2023-03-01T13:39:44;20.20;35.30
26342;DHT22;14054;50.108;8.640;2023-03-01T13:44:53;19.10;36.90
26342;DHT22;14054;50.108;8.640;2023-03-01T13:47:19;20.50;35.30
26342;DHT22;14054;50.108;8.640;2023-03-01T13:49:47;19.60;35.00
26342;DHT22;14054;50.108;8.640;2023-03-01T13:54:57;19.20;35.10
26342;DHT22;14054;50.108;8.640;2023-03-01T13:57:24;20.80;35.10
26342;DHT22;14054;50.108;8.640;2023-03-01T13:59:51;21.20;34.00
26342;DHT22;14054;50.108;8.640;2023-03-01T14:02:16;21.00;33.80
26342;DHT22;14054;50.108;8.640;2023-03-01T14:04:42;20.40;35.30
26342;DHT22;14054;50.108;8.640;2023-03-01T14:09:43;18.90;36.70
26342;DHT22;14054;50.108;8.640;2023-03-01T14:12:15;20.30;35.40
26342;DHT22;14054;50.108;8.640;2023-03-01T14:19:37;18.20;37.70
26342;DHT22;14054;50.108;8.640;2023-03-01T14:24:57;16.90;39.50
26342;DHT22;14054;50.108;8.640;2023-03-01T14:27:27;13.50;67.70
26342;DHT22;14054;50.108;8.640;2023-03-01T14:29:54;13.00;88.70
26342;DHT22;14054;50.108;8.640;2023-03-01T14:32:20;12.50;48.10
26342;DHT22;14054;50.108;8.640;2023-03-01T14:39:47;11.10;52.30
26342;DHT22;14054;50.108;8.640;2023-03-01T14:42:12;11.10;53.00
26342;DHT22;14054;50.108;8.640;2023-03-01T14:44:40;10.70;53.40
26342;DHT22;14054;50.108;8.640;2023-03-01T14:47:06;10.70;53.90
26342;DHT22;14054;50.108;8.640;2023-03-01T14:49:32;10.40;54.90
26342;DHT22;14054;50.108;8.640;2023-03-01T14:54:24;10.30;56.00
26342;DHT22;14054;50.108;8.640;2023-03-01T14:59:23;9.70;73.60
26342;DHT22;14054;50.108;8.640;2023-03-01T15:04:15;9.60;67.70
26342;DHT22;14054;50.108;8.640;2023-03-01T15:06:41;9.60;65.40
26342;DHT22;14054;50.108;8.640;2023-03-01T15:09:06;9.40;60.30
26342;DHT22;14054;50.108;8.640;2023-03-01T15:14:24;9.50;66.40
26342;DHT22;14054;50.108;8.640;2023-03-01T15:16:49;9.30;66.60
26342;DHT22;14054;50.108;8.640;2023-03-01T15:26:40;9.00;91.80
26342;DHT22;14054;50.108;8.640;2023-03-01T15:29:10;9.00;95.40
26342;DHT22;14054;50.108;8.640;2023-03-01T15:31:41;9.10;94.70
26342;DHT22;14054;50.108;8.640;2023-03-01T15:34:08;8.90;95.20
26342;DHT22;14054;50.108;8.640;2023-03-01T15:36:37;9.20;90.20
26342;DHT22;14054;50.108;8.640;2023-03-01T15:39:04;8.70;94.00
26342;DHT22;14054;50.108;8.640;2023-03-01T15:41:45;8.60;64.20
26342;DHT22;14054;50.108;8.640;2023-03-01T15:44:23;8.40;64.80
26342;DHT22;14054;50.108;8.640;2023-03-01T15:46:49;8.50;66.10
26342;DHT22;14054;50.108;8.640;2023-03-01T15:54:17;8.40;66.20
26342;DHT22;14054;50.108;8.640;2023-03-01T15:56:43;8.20;67.60
26342;DHT22;14054;50.108;8.640;2023-03-01T15:59:09;8.20;68.30
26342;DHT22;14054;50.108;8.640;2023-03-01T16:01:37;8.00;69.20
26342;DHT22;14054;50.108;8.640;2023-03-01T16:04:02;8.00;69.90
26342;DHT22;14054;50.108;8.640;2023-03-01T16:06:27;7.90;69.90
26342;DHT22;14054;50.108;8.640;2023-03-01T16:08:53;7.90;70.30
26342;DHT22;14054;50.108;8.640;2023-03-01T16:11:19;7.80;70.10
26342;DHT22;14054;50.108;8.640;2023-03-01T16:13:45;7.70;70.20
26342;DHT22;14054;50.108;8.640;2023-03-01T16:16:11;7.60;70.50
26342;DHT22;14054;50.108;8.640;2023-03-01T16:18:47;7.50;70.90
26342;DHT22;14054;50.108;8.640;2023-03-01T16:21:20;7.50;72.10
26342;DHT22;14054;50.108;8.640;2023-03-01T16:23:45;7.40;71.70
26342;DHT22;14054;50.108;8.640;2023-03-01T16:26:11;7.30;72.40
26342;DHT22;14054;50.108;8.640;2023-03-01T16:28:38;7.30;73.10
26342;DHT22;14054;50.108;8.640;2023-03-01T16:31:04;7.20;73.40
26342;DHT22;14054;50.108;8.640;2023-03-01T16:33:29;7.20;74.10
26342;DHT22;14054;50.108;8.640;2023-03-01T16:35:55;7.20;75.10
26342;DHT22;14054;50.108;8.640;2023-03-01T16:38:20;7.10;75.30
26342;DHT22;14054;50.108;8.640;2023-03-01T16:40:46;7.10;75.70
26342;DHT22;14054;50.108;8.640;2023-03-01T16:43:12;7.00;76.00
26342;DHT22;14054;50.108;8.640;2023-03-01T16:45:38;6.90;76.20
26342;DHT22;14054;50.108;8.640;2023-03-01T16:48:05;6.90;76.90
26342;DHT22;14054;50.108;8.640;2023-03-01T16:50:31;6.80;77.70
26342;DHT22;14054;50.108;8.640;2023-03-01T16:52:56;6.80;78.10
26342;DHT22;14054;50.108;8.640;2023-03-01T16:55:22;6.70;78.70
26342;DHT22;14054;50.108;8.640;2023-03-01T16:57:48;6.60;78.10
26342;DHT22;14054;50.108;8.640;2023-03-01T17:00:13;6.60;79.90
26342;DHT22;14054;50.108;8.640;2023-03-01T17:02:40;6.50;80.40
26342;DHT22;14054;50.108;8.640;2023-03-01T17:05:06;6.50;81.10
26342;DHT22;14054;50.108;8.640;2023-03-01T17:10:01;6.40;82.00
26342;DHT22;14054;50.108;8.640;2023-03-01T17:12:27;6.40;83.70
26342;DHT22;14054;50.108;8.640;2023-03-01T17:14:53;6.30;84.50
26342;DHT22;14054;50.108;8.640;2023-03-01T17:17:18;6.20;85.70
26342;DHT22;14054;50.108;8.640;2023-03-01T17:19:44;6.20;86.90
26342;DHT22;14054;50.108;8.640;2023-03-01T17:22:10;6.10;88.10
26342;DHT22;14054;50.108;8.640;2023-03-01T17:24:36;6.00;89.20
26342;DHT22;14054;50.108;8.640;2023-03-01T17:27:02;6.00;90.10
26342;DHT22;14054;50.108;8.640;2023-03-01T17:29:27;6.00;90.50
26342;DHT22;14054;50.108;8.640;2023-03-01T17:31:53;6.00;91.10
26342;DHT22;14054;50.108;8.640;2023-03-01T17:34:21;5.90;91.60
26342;DHT22;14054;50.108;8.640;2023-03-01T17:36:47;5.80;92.00
26342;DHT22;14054;50.108;8.640;2023-03-01T17:39:15;5.70;92.50
26342;DHT22;14054;50.108;8.640;2023-03-01T17:41:40;5.70;93.10
26342;DHT22;14054;50.108;8.640;2023-03-01T17:44:06;5.70;93.90
26342;DHT22;14054;50.108;8.640;2023-03-01T17:46:31;5.60;94.40
26342;DHT22;14054;50.108;8.640;2023-03-01T17:48:56;5.60;94.90
26342;DHT22;14054;50.108;8.640;2023-03-01T17:51:22;5.60;95.20
26342;DHT22;14054;50.108;8.640;2023-03-01T17:53:47;5.50;95.80
26342;DHT22;14054;50.108;8.640;2023-03-01T17:56:13;5.50;96.30
26342;DHT22;14054;50.108;8.640;2023-03-01T17:58:38;5.50;96.70
26342;DHT22;14054;50.108;8.640;2023-03-01T18:01:14;5.40;97.10